Time;durP1;ratioP1;P1;durP2;ratioP2;P2;SDS_P1;SDS_P2;PMS_P1;PMS_P2;Temp;Humidity;BMP_temperature;BMP_pressure;BME280_temperature;BME280_humidity;BME280_pressure;Samples;Min_cycle;Max_cycle;Signal;HPM_P1;HPM_P2
2022/01/03 00:00:52;;;;;;;8.45;1.90;;;20.10;65.50;;;;;;4938865;28;96712;-60
2022/01/03 00:03:22;;;;;;;5.35;1.70;;;20.10;65.50;;;;;;4950253;28;95825;-59
2022/01/03 00:05:54;;;;;;;5.47;1.48;;;20.20;66.20;;;;;;4951430;28;95341;-60
2022/01/03 00:08:27;;;;;;;7.18;1.73;;;20.20;65.50;;;;;;4951072;28;95658;-57
2022/01/03 00:11:00;;;;;;;4.10;1.63;;;20.20;65.60;;;;;;4951554;28;98738;-60
2022/01/03 00:13:32;;;;;;;5.18;1.88;;;20.30;65.60;;;;;;4965417;28;95663;-60
2022/01/03 00:16:02;;;;;;;7.03;1.67;;;20.30;65.50;;;;;;4942228;28;95333;-58
2022/01/03 00:18:33;;;;;;;4.60;1.92;;;20.40;65.50;;;;;;4949802;28;95774;-59
2022/01/03 00:21:14;;;;;;;11.85;2.70;;;20.40;65.40;;;;;;4951678;28;96846;-59
2022/01/03 00:23:55;;;;;;;6.85;1.85;;;20.40;65.40;;;;;;4949721;28;95672;-57
2022/01/03 00:26:28;;;;;;;8.95;2.30;;;20.40;65.40;;;;;;4952360;28;95886;-58
2022/01/03 00:29:00;;;;;;;4.80;2.03;;;20.40;65.30;;;;;;4965586;28;95322;-58
2022/01/03 00:31:38;;;;;;;5.82;2.17;;;20.50;65.40;;;;;;4942102;28;96660;-60
2022/01/03 00:34:11;;;;;;;8.60;2.17;;;20.50;65.30;;;;;;4946818;28;95431;-59
2022/01/03 00:36:44;;;;;;;4.65;1.83;;;20.50;65.30;;;;;;4950844;28;95839;-60
2022/01/03 00:39:15;;;;;;;6.60;2.10;;;20.50;65.20;;;;;;4949403;28;95390;-60
2022/01/03 00:41:48;;;;;;;4.45;1.50;;;20.60;65.30;;;;;;4949968;28;96423;-58
2022/01/03 00:44:18;;;;;;;5.25;1.75;;;20.60;65.20;;;;;;4950660;28;95874;-59
2022/01/03 00:46:48;;;;;;;2.50;1.37;;;20.70;65.20;;;;;;4943268;28;96264;-58
2022/01/03 00:49:19;;;;;;;3.27;1.63;;;20.70;65.20;;;;;;4947160;28;97489;-60
2022/01/03 00:51:51;;;;;;;3.38;1.73;;;20.70;65.20;;;;;;4944225;28;96074;-60
2022/01/03 00:54:21;;;;;;;2.95;1.75;;;20.80;65.20;;;;;;4945231;28;97749;-57
2022/01/03 00:56:54;;;;;;;6.63;2.13;;;20.80;65.20;;;;;;4938248;28;95482;-58
2022/01/03 00:59:51;;;;;;;4.65;2.08;;;20.80;65.10;;;;;;4943684;28;96273;-59
2022/01/03 01:02:22;;;;;;;5.50;2.33;;;20.90;65.20;;;;;;4939099;28;96728;-59
2022/01/03 01:04:55;;;;;;;4.57;1.98;;;20.90;65.10;;;;;;4947142;28;95850;-60
2022/01/03 01:07:31;;;;;;;6.78;2.08;;;21.00;65.10;;;;;;4947895;28;98242;-60
2022/01/03 01:10:04;;;;;;;6.43;1.88;;;21.00;65.00;;;;;;4949638;28;97679;-59
2022/01/03 01:12:38;;;;;;;4.13;1.73;;;21.00;65.00;;;;;;4949481;28;96849;-59
2022/01/03 01:15:09;;;;;;;5.35;1.75;;;21.00;65.00;;;;;;4949399;28;96576;-60
2022/01/03 01:17:42;;;;;;;2.83;1.58;;;21.10;65.00;;;;;;4943041;28;95721;-59
2022/01/03 01:20:19;;;;;;;5.00;1.80;;;21.10;64.90;;;;;;4979453;28;96219;-60
2022/01/03 01:22:53;;;;;;;6.78;2.72;;;21.20;65.00;;;;;;4931398;28;96741;-59
2022/01/03 01:27:46;;;;;;;3.55;1.63;;;21.20;64.90;;;;;;4964775;28;98077;-58
2022/01/03 01:28:17;;;;;;;4.50;1.60;;;21.20;64.80;;;;;;4949896;28;95351;-59
2022/01/03 01:30:50;;;;;;;5.43;1.87;;;21.20;64.90;;;;;;4943543;28;95591;-57
2022/01/03 01:33:22;;;;;;;8.85;2.22;;;21.20;64.80;;;;;;4943405;28;97988;-59
2022/01/03 01:36:16;;;;;;;6.20;2.35;;;21.30;64.90;;;;;;4946371;28;96115;-59
2022/01/03 01:39:01;;;;;;;5.90;2.17;;;21.20;64.80;;;;;;4949473;28;95767;-58
2022/01/03 01:41:38;;;;;;;6.72;2.17;;;21.30;64.80;;;;;;4949578;28;95450;-58
2022/01/03 01:44:12;;;;;;;5.35;2.05;;;21.20;64.60;;;;;;4948535;28;96773;-61
2022/01/03 01:46:53;;;;;;;3.67;1.45;;;21.30;64.70;;;;;;4953584;28;97962;-56
2022/01/03 01:49:27;;;;;;;9.98;2.38;;;21.20;64.60;;;;;;4948527;28;95914;-60
2022/01/03 01:52:03;;;;;;;11.25;2.63;;;21.20;64.50;;;;;;4966404;28;96017;-58
2022/01/03 01:54:39;;;;;;;3.85;1.73;;;21.30;64.60;;;;;;4944502;28;96568;-59
2022/01/03 01:57:19;;;;;;;4.38;1.70;;;21.30;64.50;;;;;;4938750;28;97847;-59
2022/01/03 02:00:08;;;;;;;7.75;2.20;;;21.30;64.40;;;;;;4964379;28;95918;-63
2022/01/03 02:03:20;;;;;;;4.88;2.08;;;21.30;64.10;;;;;;4932460;28;95368;-60
2022/01/03 02:06:21;;;;;;;4.05;1.67;;;21.30;64.10;;;;;;4913007;28;96128;-58
2022/01/03 02:09:05;;;;;;;6.20;2.50;;;21.40;64.20;;;;;;4944911;28;96187;-57
2022/01/03 02:11:58;;;;;;;5.03;1.73;;;21.50;64.10;;;;;;4935361;28;95817;-56
2022/01/03 02:14:37;;;;;;;3.47;2.00;;;21.60;64.00;;;;;;4927915;28;95960;-61
2022/01/03 02:17:12;;;;;;;6.80;2.42;;;21.60;63.90;;;;;;4949895;28;98254;-58
2022/01/03 02:20:11;;;;;;;5.40;1.95;;;21.60;63.80;;;;;;4929679;28;95683;-60
2022/01/03 02:22:43;;;;;;;5.30;2.10;;;21.70;63.80;;;;;;4950574;28;95223;-58
2022/01/03 02:25:20;;;;;;;4.82;1.67;;;21.70;63.70;;;;;;4929892;28;96011;-60
2022/01/03 02:27:52;;;;;;;5.13;1.67;;;21.70;63.60;;;;;;4963347;28;98047;-60
2022/01/03 02:30:27;;;;;;;4.07;2.22;;;21.80;63.60;;;;;;4921680;28;97448;-59
2022/01/03 02:32:57;;;;;;;3.92;2.15;;;21.80;63.40;;;;;;4952875;28;95895;-60
2022/01/03 02:35:29;;;;;;;3.63;1.90;;;21.90;63.40;;;;;;4949656;28;95677;-59
2022/01/03 02:38:01;;;;;;;6.45;1.55;;;21.90;63.30;;;;;;4950370;28;96103;-58
2022/01/03 02:40:32;;;;;;;2.85;1.70;;;21.90;63.20;;;;;;4949753;28;97246;-59
2022/01/03 02:43:04;;;;;;;5.43;2.17;;;21.90;63.20;;;;;;4949228;28;97379;-59
2022/01/03 02:45:36;;;;;;;3.60;1.90;;;22.00;63.20;;;;;;4928821;28;95834;-60
2022/01/03 02:48:11;;;;;;;4.60;1.98;;;22.00;63.10;;;;;;4949373;28;96066;-58
2022/01/03 02:50:43;;;;;;;3.08;1.58;;;22.00;63.00;;;;;;4946872;28;97229;-61
2022/01/03 02:53:19;;;;;;;3.47;1.55;;;22.00;63.00;;;;;;4966183;28;95747;-60
2022/01/03 02:55:50;;;;;;;2.25;1.52;;;22.10;62.90;;;;;;4951208;28;97524;-59
2022/01/03 02:58:22;;;;;;;3.58;1.88;;;22.10;62.80;;;;;;4940091;28;96862;-61
2022/01/03 03:00:53;;;;;;;4.75;2.10;;;22.10;62.70;;;;;;4942027;28;97889;-61
2022/01/03 03:03:36;;;;;;;3.10;1.88;;;22.20;62.70;;;;;;4949200;28;95950;-57
2022/01/03 03:06:08;;;;;;;3.80;1.60;;;22.20;62.60;;;;;;4942662;28;96176;-58
2022/01/03 03:08:39;;;;;;;4.35;1.80;;;22.20;62.50;;;;;;4966205;28;96124;-61
2022/01/03 03:11:11;;;;;;;3.25;1.75;;;22.20;62.40;;;;;;4949861;28;97149;-60
2022/01/03 03:13:42;;;;;;;3.58;1.83;;;22.20;62.30;;;;;;4966825;28;95748;-60
2022/01/03 03:16:13;;;;;;;3.13;1.63;;;22.20;62.20;;;;;;4957779;28;95487;-61
2022/01/03 03:18:45;;;;;;;4.70;1.60;;;22.30;62.30;;;;;;4948841;28;96498;-62
2022/01/03 03:21:15;;;;;;;;;;;22.30;62.20;;;;;;4951057;28;96392;-60
2022/01/03 03:23:46;;;;;;;2.13;1.33;;;22.30;62.10;;;;;;4953480;28;95533;-61
2022/01/03 03:26:18;;;;;;;2.67;1.83;;;22.30;61.90;;;;;;4949518;28;95965;-60
2022/01/03 03:28:52;;;;;;;4.40;1.80;;;22.30;61.90;;;;;;4949775;28;96156;-60
2022/01/03 03:31:25;;;;;;;2.22;1.35;;;22.30;61.90;;;;;;4950765;28;98374;-62
2022/01/03 03:33:57;;;;;;;2.20;1.45;;;22.40;59.60;;;;;;4949460;28;95482;-62
2022/01/03 03:36:30;;;;;;;3.08;1.40;;;22.40;61.80;;;;;;4946108;28;95533;-61
2022/01/03 03:39:01;;;;;;;2.63;1.83;;;22.40;61.60;;;;;;4962848;28;98416;-59
2022/01/03 03:41:31;;;;;;;2.33;1.58;;;22.50;61.60;;;;;;4947209;28;96011;-57
2022/01/03 03:44:01;;;;;;;2.85;1.45;;;22.50;61.50;;;;;;4942708;28;95596;-59
2022/01/03 03:46:31;;;;;;;3.50;1.52;;;22.50;61.40;;;;;;4940672;28;96346;-57
2022/01/03 03:49:02;;;;;;;;;;;22.50;61.30;;;;;;4961610;28;98101;-60
2022/01/03 03:51:38;;;;;;;3.17;1.65;;;22.50;61.20;;;;;;4946642;28;95768;-61
2022/01/03 03:54:09;;;;;;;1.95;1.40;;;22.50;61.10;;;;;;4946223;28;96099;-59
2022/01/03 03:56:40;;;;;;;6.18;2.00;;;22.60;61.00;;;;;;4943643;28;95471;-60
2022/01/03 03:59:12;;;;;;;4.75;1.98;;;22.60;61.20;;;;;;4957085;28;96357;-57
2022/01/03 04:01:43;;;;;;;4.57;2.00;;;22.60;60.90;;;;;;4954937;28;97391;-61
2022/01/03 04:04:14;;;;;;;2.67;1.50;;;22.60;60.90;;;;;;4942706;28;95562;-61
2022/01/03 04:06:46;;;;;;;6.10;1.92;;;22.60;60.80;;;;;;4945084;28;96428;-61
2022/01/03 04:09:18;;;;;;;4.38;1.88;;;22.60;60.70;;;;;;4943587;28;99019;-61
2022/01/03 04:11:51;;;;;;;1.88;1.50;;;22.60;60.70;;;;;;4937138;28;96003;-61
2022/01/03 04:14:23;;;;;;;4.03;2.00;;;22.70;60.60;;;;;;4964948;28;95937;-61
2022/01/03 04:16:52;;;;;;;;;;;22.70;60.60;;;;;;4936765;28;95953;-61
2022/01/03 04:19:24;;;;;;;2.95;1.67;;;22.70;60.50;;;;;;4969094;28;98692;-60
2022/01/03 04:21:56;;;;;;;6.07;1.92;;;22.80;60.60;;;;;;4949499;28;95861;-60
2022/01/03 04:24:28;;;;;;;3.50;2.00;;;22.80;60.50;;;;;;4961214;28;95779;-60
2022/01/03 04:27:00;;;;;;;3.75;1.98;;;22.80;60.30;;;;;;4947433;28;95810;-61
2022/01/03 04:29:31;;;;;;;2.63;2.00;;;22.80;60.30;;;;;;4962631;28;98133;-61
2022/01/03 04:32:03;;;;;;;2.67;1.75;;;22.80;60.20;;;;;;4938124;28;96380;-60
2022/01/03 04:34:33;;;;;;;3.92;2.35;;;22.80;60.20;;;;;;4948214;28;95254;-58
2022/01/03 04:37:04;;;;;;;3.53;1.80;;;22.90;60.20;;;;;;4963926;28;96167;-57
2022/01/03 04:39:37;;;;;;;2.40;1.98;;;22.90;60.10;;;;;;4962943;28;96617;-55
2022/01/03 04:42:08;;;;;;;2.65;1.67;;;22.90;59.90;;;;;;4945173;28;97617;-57
2022/01/03 04:44:39;;;;;;;3.83;2.05;;;22.90;60.00;;;;;;4962377;28;95932;-60
2022/01/03 04:47:11;;;;;;;2.58;1.48;;;22.90;59.90;;;;;;4936596;28;95748;-60
2022/01/03 04:49:50;;;;;;;2.65;1.70;;;22.90;59.80;;;;;;4979292;28;97072;-58
2022/01/03 04:52:21;;;;;;;2.28;1.77;;;23.00;59.80;;;;;;4947821;28;97438;-61
2022/01/03 04:54:51;;;;;;;2.30;1.70;;;22.90;59.70;;;;;;4963322;28;95327;-62
2022/01/03 04:57:21;;;;;;;3.67;1.90;;;23.00;59.70;;;;;;4940413;28;97732;-57
2022/01/03 04:59:52;;;;;;;3.55;1.80;;;22.90;59.50;;;;;;4941308;28;97534;-61
2022/01/03 05:02:23;;;;;;;1.90;1.40;;;22.90;59.40;;;;;;4938785;28;95459;-63
2022/01/03 05:04:54;;;;;;;3.78;2.08;;;23.00;59.40;;;;;;4950435;28;96088;-59
2022/01/03 05:07:26;;;;;;;2.17;1.95;;;23.00;59.10;;;;;;4939834;28;95666;-57
2022/01/03 05:09:59;;;;;;;1.50;1.40;;;23.00;59.10;;;;;;4981746;28;96475;-57
2022/01/03 05:12:31;;;;;;;3.22;1.90;;;23.00;59.10;;;;;;4964700;28;97661;-59
2022/01/03 05:15:02;;;;;;;1.98;1.50;;;23.00;59.00;;;;;;4949260;28;95490;-61
2022/01/03 05:17:33;;;;;;;4.57;2.00;;;23.00;59.00;;;;;;4938213;28;95948;-61
2022/01/03 05:20:07;;;;;;;2.72;1.50;;;23.10;58.90;;;;;;4964006;28;96061;-61
2022/01/03 05:22:38;;;;;;;2.58;1.98;;;23.10;59.60;;;;;;4964743;28;98183;-61
2022/01/03 05:25:13;;;;;;;4.00;1.95;;;23.10;58.90;;;;;;4946357;28;95534;-59
2022/01/03 05:27:45;;;;;;;1.42;1.20;;;23.10;58.80;;;;;;4966383;28;95622;-60
2022/01/03 05:30:17;;;;;;;1.88;1.42;;;23.10;58.80;;;;;;4939946;28;98915;-61
2022/01/03 05:32:48;;;;;;;3.35;1.55;;;23.10;58.70;;;;;;4949947;28;103208;-60
2022/01/03 05:35:20;;;;;;;2.92;1.80;;;23.10;58.80;;;;;;4967070;28;95866;-60
2022/01/03 05:37:50;;;;;;;2.42;1.88;;;23.10;58.60;;;;;;4963283;28;96081;-60
2022/01/03 05:40:26;;;;;;;3.10;1.85;;;23.10;58.70;;;;;;4944829;28;96916;-61
2022/01/03 05:42:57;;;;;;;2.72;1.90;;;23.10;58.50;;;;;;4948316;28;95579;-59
2022/01/03 05:45:28;;;;;;;;;;;23.20;58.50;;;;;;4942308;28;95730;-59
2022/01/03 05:47:58;;;;;;;5.18;2.20;;;23.20;58.50;;;;;;4966862;28;95897;-61
2022/01/03 05:50:30;;;;;;;3.50;2.42;;;23.20;58.50;;;;;;4965107;28;98706;-60
2022/01/03 05:53:02;;;;;;;3.97;2.20;;;23.20;58.40;;;;;;4949706;28;97695;-61
2022/01/03 05:55:35;;;;;;;3.08;1.95;;;23.20;58.40;;;;;;4965710;28;95777;-61
2022/01/03 05:58:07;;;;;;;3.40;2.35;;;23.20;58.40;;;;;;4943152;28;96382;-62
2022/01/03 06:00:38;;;;;;;4.15;2.05;;;23.20;58.40;;;;;;4942182;28;96249;-61
2022/01/03 06:03:08;;;;;;;2.45;2.00;;;23.20;58.30;;;;;;4942791;28;96111;-61
2022/01/03 06:06:04;;;;;;;2.90;2.10;;;23.20;58.20;;;;;;4952346;28;97783;-62
2022/01/03 06:08:33;;;;;;;3.80;2.00;;;23.20;58.10;;;;;;4965577;28;96119;-61
2022/01/03 06:11:05;;;;;;;3.38;1.90;;;23.20;58.10;;;;;;4951592;28;96394;-62
2022/01/03 06:13:36;;;;;;;3.17;2.15;;;23.20;58.00;;;;;;4942403;28;97144;-60
2022/01/03 06:16:07;;;;;;;5.13;2.08;;;23.20;58.00;;;;;;4956409;28;95858;-61
2022/01/03 06:18:40;;;;;;;2.55;2.10;;;23.20;58.00;;;;;;4948924;28;95418;-59
2022/01/03 06:21:13;;;;;;;4.00;1.85;;;23.20;58.00;;;;;;4963866;28;96204;-57
2022/01/03 06:23:47;;;;;;;3.53;2.38;;;23.20;57.90;;;;;;4965099;28;97520;-61
2022/01/03 06:26:18;;;;;;;3.38;2.13;;;23.30;57.90;;;;;;4966404;28;95641;-63
2022/01/03 06:28:52;;;;;;;4.82;2.35;;;23.20;57.80;;;;;;4950497;28;95648;-59
2022/01/03 06:31:23;;;;;;;4.22;2.58;;;23.20;57.70;;;;;;4946093;28;96415;-61
2022/01/03 06:33:53;;;;;;;;;;;23.30;57.70;;;;;;4953505;28;95850;-60
2022/01/03 06:36:23;;;;;;;3.47;2.63;;;23.30;57.70;;;;;;4951875;28;96493;-60
2022/01/03 06:39:01;;;;;;;4.55;2.17;;;23.20;57.60;;;;;;4950868;28;95635;-61
2022/01/03 06:41:33;;;;;;;3.83;2.20;;;23.20;57.50;;;;;;4937110;28;96105;-59
2022/01/03 06:44:04;;;;;;;3.17;1.83;;;23.20;57.50;;;;;;4966952;28;95619;-60
2022/01/03 06:46:35;;;;;;;3.70;2.05;;;23.30;57.50;;;;;;4942083;28;95820;-60
2022/01/03 06:49:06;;;;;;;2.70;2.08;;;23.30;57.50;;;;;;4952190;28;95259;-61
2022/01/03 06:51:39;;;;;;;3.00;2.10;;;23.30;57.40;;;;;;4946043;28;98025;-60
2022/01/03 06:54:14;;;;;;;3.95;2.17;;;23.30;57.40;;;;;;4946921;28;96535;-61
2022/01/03 06:56:49;;;;;;;3.47;2.35;;;23.30;57.40;;;;;;4931213;28;96064;-61
2022/01/03 06:59:22;;;;;;;4.35;2.80;;;23.30;57.40;;;;;;4932423;28;95811;-60
2022/01/03 07:01:53;;;;;;;3.83;2.25;;;23.30;57.30;;;;;;4940296;28;96073;-60
2022/01/03 07:04:25;;;;;;;5.13;2.78;;;23.30;57.20;;;;;;4965902;28;98311;-59
2022/01/03 07:06:59;;;;;;;3.28;2.35;;;23.30;57.10;;;;;;4946237;28;95878;-62
2022/01/03 07:09:32;;;;;;;3.63;2.20;;;23.30;57.00;;;;;;4951586;28;95774;-61
2022/01/03 07:12:05;;;;;;;4.10;2.40;;;23.30;56.90;;;;;;4949136;28;96094;-61
2022/01/03 07:19:59;;;;;;;3.90;2.20;;;23.20;56.70;;;;;;4948542;28;95247;-60
2022/01/03 07:22:30;;;;;;;4.82;3.08;;;23.20;56.70;;;;;;4964334;28;96974;-61
2022/01/03 07:25:01;;;;;;;4.45;3.00;;;23.20;56.70;;;;;;4950846;28;95556;-60
2022/01/03 07:27:31;;;;;;;4.97;3.00;;;23.30;56.90;;;;;;4950443;28;95836;-60
2022/01/03 07:30:01;;;;;;;6.05;3.60;;;23.30;56.90;;;;;;4950093;28;95751;-61
2022/01/03 07:32:31;;;;;;;;;;;23.20;56.90;;;;;;4964260;28;96142;-59
2022/01/03 07:35:01;;;;;;;4.15;2.63;;;23.20;56.90;;;;;;4951529;28;96175;-59
2022/01/03 07:37:33;;;;;;;7.88;3.20;;;23.30;57.00;;;;;;4948694;28;95878;-56
2022/01/03 07:40:05;;;;;;;4.93;2.95;;;23.30;57.00;;;;;;4949227;28;95429;-60
2022/01/03 07:42:36;;;;;;;4.93;2.88;;;23.20;57.00;;;;;;4949124;28;96578;-59
2022/01/03 07:45:07;;;;;;;5.07;3.35;;;23.30;54.70;;;;;;4930575;28;97162;-58
2022/01/03 07:47:37;;;;;;;;;;;23.30;57.10;;;;;;4945453;28;95861;-61
2022/01/03 07:50:09;;;;;;;5.18;3.13;;;23.30;57.10;;;;;;4949001;28;95870;-59
2022/01/03 07:52:41;;;;;;;4.20;3.08;;;23.30;54.90;;;;;;4949366;28;96159;-59
2022/01/03 07:55:15;;;;;;;6.13;3.58;;;23.30;57.40;;;;;;4938810;28;96348;-60
2022/01/03 07:57:46;;;;;;;4.95;2.83;;;23.30;57.20;;;;;;4936949;28;95900;-59
2022/01/03 08:00:17;;;;;;;4.18;3.03;;;23.30;57.40;;;;;;4937542;28;97750;-60
2022/01/03 08:02:49;;;;;;;5.45;3.50;;;23.30;58.10;;;;;;4948882;28;96499;-56
2022/01/03 08:05:20;;;;;;;4.63;2.78;;;23.20;57.30;;;;;;4948468;28;95853;-59
2022/01/03 08:07:51;;;;;;;3.90;3.10;;;23.20;57.40;;;;;;4948889;28;95591;-61
2022/01/03 08:10:23;;;;;;;;;;;23.20;57.40;;;;;;4950863;28;95340;-61
2022/01/03 08:12:53;;;;;;;4.03;2.92;;;23.20;57.50;;;;;;4948924;28;96183;-58
2022/01/03 08:15:24;;;;;;;;;;;23.30;57.60;;;;;;4942864;28;95729;-59
2022/01/03 08:17:55;;;;;;;6.18;3.63;;;23.20;57.60;;;;;;4950954;28;95588;-61
2022/01/03 08:20:26;;;;;;;3.83;2.92;;;23.20;57.70;;;;;;4956905;28;95861;-60
2022/01/03 08:22:57;;;;;;;6.43;3.20;;;23.20;57.60;;;;;;4947420;28;96784;-59
2022/01/03 08:25:30;;;;;;;;;;;23.20;57.70;;;;;;4943907;28;95808;-59
2022/01/03 08:28:01;;;;;;;3.38;2.58;;;23.20;57.80;;;;;;4948648;28;96152;-58
2022/01/03 08:30:32;;;;;;;5.47;3.08;;;23.20;57.80;;;;;;4941883;28;96965;-61
2022/01/03 08:33:03;;;;;;;3.63;2.50;;;23.20;57.90;;;;;;4949509;28;96245;-60
2022/01/03 08:35:33;;;;;;;3.75;2.63;;;23.20;57.90;;;;;;4950319;28;95460;-60
2022/01/03 08:38:04;;;;;;;4.55;2.90;;;23.20;57.90;;;;;;4950309;28;95458;-62
2022/01/03 08:40:35;;;;;;;4.28;2.55;;;23.20;58.00;;;;;;4950365;28;95647;-59
2022/01/03 08:43:05;;;;;;;3.90;2.72;;;23.20;58.10;;;;;;4949599;28;95955;-60
2022/01/03 08:45:36;;;;;;;3.30;2.47;;;23.20;58.10;;;;;;4941341;28;95803;-59
2022/01/03 08:48:10;;;;;;;3.63;2.65;;;23.20;58.10;;;;;;4947955;28;95354;-61
2022/01/03 08:50:40;;;;;;;4.60;3.03;;;23.20;58.20;;;;;;4949422;28;95787;-61
2022/01/03 08:53:11;;;;;;;;;;;23.20;58.30;;;;;;4949039;28;96445;-60
2022/01/03 08:55:42;;;;;;;2.85;2.47;;;23.20;58.30;;;;;;4949026;28;95588;-60
2022/01/03 08:58:13;;;;;;;3.90;2.72;;;23.20;58.30;;;;;;4938773;28;96055;-60
2022/01/03 09:00:44;;;;;;;4.22;2.50;;;23.20;58.40;;;;;;4938625;28;95398;-60
2022/01/03 09:03:15;;;;;;;5.18;3.10;;;23.10;58.30;;;;;;4928298;28;96089;-60
2022/01/03 09:05:46;;;;;;;3.53;2.42;;;23.10;58.40;;;;;;4928693;28;95912;-61
2022/01/03 09:08:17;;;;;;;5.38;2.55;;;23.20;58.50;;;;;;4929375;28;95197;-60
2022/01/03 09:10:50;;;;;;;3.70;2.40;;;23.10;58.40;;;;;;4928898;28;95412;-58
2022/01/03 09:13:23;;;;;;;4.53;2.80;;;23.10;58.50;;;;;;4929029;28;96442;-59
2022/01/03 09:15:56;;;;;;;5.47;2.95;;;23.10;58.50;;;;;;4920902;28;98728;-59
2022/01/03 09:18:29;;;;;;;5.10;2.92;;;23.10;58.50;;;;;;4927383;28;95708;-60
2022/01/03 09:21:01;;;;;;;3.03;2.08;;;23.10;58.60;;;;;;4925253;28;96789;-60
2022/01/03 09:23:39;;;;;;;3.83;3.05;;;23.10;58.60;;;;;;4927979;28;96081;-62
2022/01/03 09:28:59;;;;;;;8.80;4.28;;;23.00;58.60;;;;;;4928205;28;95956;-61
2022/01/03 09:31:38;;;;;;;13.15;4.60;;;23.00;58.70;;;;;;4928888;28;95698;-57
2022/01/03 09:34:09;;;;;;;17.50;5.70;;;22.70;57.90;;;;;;4945301;28;96430;-62
2022/01/03 09:36:39;;;;;;;15.23;5.05;;;22.40;58.30;;;;;;4946544;28;96018;-60
2022/01/03 09:39:12;;;;;;;14.98;6.50;;;22.20;59.00;;;;;;4947369;28;96000;-60
2022/01/03 09:42:03;;;;;;;14.63;5.38;;;22.00;59.00;;;;;;4946171;28;95778;-59
2022/01/03 09:44:34;;;;;;;12.18;3.67;;;21.90;59.40;;;;;;4948144;28;96937;-60
2022/01/03 09:47:06;;;;;;;9.10;3.22;;;21.80;59.30;;;;;;4940553;28;98375;-57
2022/01/03 09:49:40;;;;;;;16.10;7.55;;;21.60;59.20;;;;;;4948293;28;95775;-61
2022/01/03 09:52:12;;;;;;;24.05;14.55;;;21.60;59.40;;;;;;4947786;28;95584;-58
2022/01/03 09:54:43;;;;;;;16.42;7.65;;;21.50;58.70;;;;;;4945490;28;96551;-60
2022/01/03 09:57:14;;;;;;;;;;;21.40;59.40;;;;;;4939711;28;95812;-56
2022/01/03 09:59:48;;;;;;;13.68;5.65;;;21.30;59.40;;;;;;4941590;28;95679;-60
2022/01/03 10:02:21;;;;;;;31.42;7.47;;;21.20;59.40;;;;;;4940788;28;98524;-62
2022/01/03 10:04:51;;;;;;;;;;;21.20;60.10;;;;;;4947284;28;95987;-61
2022/01/03 10:07:23;;;;;;;12.18;3.97;;;21.30;60.50;;;;;;4948541;28;95706;-58
2022/01/03 10:09:56;;;;;;;13.65;5.00;;;21.20;60.20;;;;;;4947962;28;96012;-55
2022/01/03 10:12:28;;;;;;;20.50;4.20;;;21.10;61.00;;;;;;4949354;28;95916;-61
2022/01/03 10:15:00;;;;;;;9.68;3.10;;;21.10;61.40;;;;;;4961814;28;97677;-55
2022/01/03 10:17:41;;;;;;;12.27;3.08;;;21.10;61.30;;;;;;4943939;28;99324;-57
2022/01/03 10:20:14;;;;;;;13.60;3.20;;;21.00;61.60;;;;;;4951472;28;95294;-62
2022/01/03 10:22:45;;;;;;;7.05;2.35;;;20.90;61.80;;;;;;4950007;28;95705;-60
2022/01/03 10:25:17;;;;;;;14.65;3.28;;;20.80;61.90;;;;;;4956617;28;98059;-58
2022/01/03 10:27:55;;;;;;;12.18;3.13;;;20.70;61.90;;;;;;4949292;28;95609;-59
2022/01/03 10:30:40;;;;;;;9.52;2.20;;;20.70;62.40;;;;;;4940140;28;95831;-59
2022/01/03 10:33:19;;;;;;;9.48;2.80;;;20.60;62.50;;;;;;4949585;28;95694;-63
2022/01/03 10:35:56;;;;;;;13.85;2.55;;;20.60;62.60;;;;;;4949057;28;96275;-56
2022/01/03 10:38:44;;;;;;;13.27;3.17;;;20.50;62.20;;;;;;4948287;28;95804;-55
2022/01/03 10:41:18;;;;;;;8.90;2.78;;;20.40;62.30;;;;;;4948401;28;96776;-55
2022/01/03 10:43:57;;;;;;;11.27;2.30;;;20.30;63.30;;;;;;4945799;28;95828;-58
2022/01/03 10:46:32;;;;;;;9.13;2.58;;;20.30;63.80;;;;;;4941188;28;96479;-56
2022/01/03 10:49:20;;;;;;;9.32;3.03;;;20.20;62.00;;;;;;4948589;28;95956;-58
2022/01/03 10:51:51;;;;;;;8.73;3.13;;;20.10;63.70;;;;;;4948815;28;96021;-58
2022/01/03 10:54:21;;;;;;;9.60;3.23;;;20.00;64.00;;;;;;4953559;28;95450;-62
2022/01/03 10:56:52;;;;;;;;;;;20.10;64.40;;;;;;4926268;28;97232;-62
2022/01/03 10:59:28;;;;;;;10.63;2.33;;;20.10;64.60;;;;;;4932139;28;96043;-58
2022/01/03 11:01:59;;;;;;;10.85;2.60;;;20.20;64.40;;;;;;4939676;28;97420;-57
2022/01/03 11:04:46;;;;;;;10.40;3.37;;;20.30;64.10;;;;;;4946558;28;95769;-59
2022/01/03 11:13:15;;;;;;;9.88;2.55;;;20.20;63.90;;;;;;4946643;28;95847;-58
2022/01/03 11:15:57;;;;;;;11.98;2.50;;;20.10;64.00;;;;;;4934505;28;95388;-61
2022/01/03 11:18:32;;;;;;;9.90;2.67;;;20.10;64.20;;;;;;4945917;28;95889;-60
2022/01/03 11:21:17;;;;;;;6.70;2.53;;;20.00;64.40;;;;;;4946038;28;95760;-58
2022/01/03 11:24:11;;;;;;;6.95;2.67;;;20.10;64.10;;;;;;4945536;28;96242;-59
2022/01/03 11:26:48;;;;;;;6.00;2.20;;;20.00;64.30;;;;;;4946517;28;95893;-60
2022/01/03 11:29:18;;;;;;;7.38;2.83;;;20.10;64.90;;;;;;4946176;28;95954;-60
2022/01/03 11:31:53;;;;;;;4.72;2.10;;;20.10;64.90;;;;;;4939515;28;95893;-58
2022/01/03 11:34:25;;;;;;;11.25;2.38;;;20.30;64.60;;;;;;4947242;28;96178;-64
2022/01/03 11:37:03;;;;;;;8.35;2.47;;;20.30;63.80;;;;;;4945587;28;97249;-57
2022/01/03 11:39:36;;;;;;;9.63;2.20;;;20.30;64.50;;;;;;4945542;28;96723;-60
2022/01/03 11:42:09;;;;;;;8.48;2.60;;;20.30;64.10;;;;;;4947405;28;95963;-65
2022/01/03 11:44:43;;;;;;;8.55;2.45;;;20.30;64.00;;;;;;4945525;28;96248;-59
2022/01/03 11:47:15;;;;;;;14.82;2.92;;;20.20;64.10;;;;;;4939752;28;97100;-56
2022/01/03 11:49:50;;;;;;;7.32;2.22;;;20.20;64.50;;;;;;4941819;28;96959;-57
2022/01/03 11:52:22;;;;;;;10.55;3.08;;;20.30;64.60;;;;;;4947215;28;96001;-59
2022/01/03 11:54:55;;;;;;;6.10;2.42;;;20.30;63.70;;;;;;4946402;28;95739;-60
2022/01/03 11:57:45;;;;;;;14.73;2.97;;;20.20;63.80;;;;;;4935135;28;96858;-63
2022/01/03 12:06:04;;;;;;;11.73;3.58;;;20.20;64.20;;;;;;4923211;28;95804;-59
2022/01/03 12:08:38;;;;;;;12.85;2.92;;;20.20;65.20;;;;;;4925111;28;95321;-58
2022/01/03 12:11:25;;;;;;;10.10;2.60;;;20.20;64.90;;;;;;4926578;28;96181;-59
2022/01/03 12:14:06;;;;;;;11.48;2.42;;;20.20;65.00;;;;;;4926019;28;95883;-58
2022/01/03 12:16:50;;;;;;;9.97;2.63;;;20.20;65.20;;;;;;4929497;28;95747;-64
2022/01/03 12:19:42;;;;;;;7.80;2.08;;;20.10;64.50;;;;;;4945406;28;95667;-57
2022/01/03 12:22:19;;;;;;;;;;;20.10;65.40;;;;;;4946096;28;96076;-59
2022/01/03 12:25:03;;;;;;;11.18;2.80;;;20.00;65.80;;;;;;4943479;28;95777;-64
2022/01/03 12:27:40;;;;;;;15.60;2.75;;;20.10;65.70;;;;;;4942933;28;95833;-58
2022/01/03 12:30:16;;;;;;;16.75;3.40;;;20.10;66.40;;;;;;4942890;28;95847;-62
2022/01/03 12:33:08;;;;;;;12.35;2.75;;;19.90;65.40;;;;;;4941319;28;97946;-59
2022/01/03 12:35:40;;;;;;;6.00;1.98;;;19.90;66.10;;;;;;4945294;28;95922;-59
2022/01/03 12:38:14;;;;;;;9.55;2.83;;;19.80;66.80;;;;;;4945546;28;96181;-59
2022/01/03 12:40:52;;;;;;;12.27;3.05;;;19.80;66.80;;;;;;4947118;28;95675;-55
2022/01/03 12:43:56;;;;;;;10.00;2.85;;;19.80;66.70;;;;;;4946336;28;97187;-57
2022/01/03 12:46:28;;;;;;;10.70;3.17;;;19.70;66.80;;;;;;4933473;28;95712;-63
2022/01/03 12:49:26;;;;;;;11.18;3.10;;;19.60;67.60;;;;;;4960658;28;95736;-58
2022/01/03 12:52:16;;;;;;;10.02;2.90;;;19.60;67.80;;;;;;4947741;28;96300;-56
2022/01/03 12:54:55;;;;;;;6.82;2.28;;;19.70;68.20;;;;;;4959954;28;95893;-55
2022/01/03 12:57:31;;;;;;;9.18;2.80;;;19.90;68.00;;;;;;4936604;28;95386;-58
2022/01/03 13:00:03;;;;;;;5.80;2.20;;;20.00;68.40;;;;;;4942525;28;96306;-58
2022/01/03 13:02:35;;;;;;;8.13;3.00;;;20.10;67.60;;;;;;4946599;28;95422;-61
2022/01/03 13:05:05;;;;;;;;;;;20.20;66.20;;;;;;4947289;28;96074;-58
2022/01/03 13:07:35;;;;;;;7.10;2.10;;;20.20;67.40;;;;;;4948011;28;97091;-61
2022/01/03 13:10:07;;;;;;;8.75;2.40;;;20.20;67.30;;;;;;4948935;28;97452;-60
2022/01/03 13:12:47;;;;;;;7.93;2.88;;;20.20;67.20;;;;;;4947415;28;95627;-54
2022/01/03 13:15:21;;;;;;;7.55;2.70;;;20.20;67.10;;;;;;4947091;28;96345;-60
2022/01/03 13:18:15;;;;;;;5.95;2.30;;;20.20;67.10;;;;;;4945725;28;95709;-57
2022/01/03 13:20:59;;;;;;;8.32;3.00;;;20.20;67.10;;;;;;4948019;28;95748;-57
2022/01/03 13:23:30;;;;;;;5.05;2.60;;;20.20;67.00;;;;;;4949109;28;95693;-57
2022/01/03 13:26:06;;;;;;;10.15;3.13;;;20.20;67.00;;;;;;4948714;28;96142;-57
2022/01/03 13:28:52;;;;;;;7.50;2.35;;;20.20;67.00;;;;;;4948770;28;95559;-57
2022/01/03 13:31:23;;;;;;;8.82;2.28;;;20.20;67.00;;;;;;4930502;28;98401;-61
2022/01/03 13:33:55;;;;;;;8.87;2.40;;;20.20;67.60;;;;;;4948705;28;95955;-55
2022/01/03 13:36:52;;;;;;;7.97;2.35;;;20.20;67.00;;;;;;4944880;28;96043;-59
2022/01/03 13:39:26;;;;;;;9.07;2.75;;;20.20;67.00;;;;;;4947456;28;96066;-59
2022/01/03 13:42:05;;;;;;;8.95;2.75;;;20.20;67.00;;;;;;4939094;28;95289;-57
2022/01/03 13:50:22;;;;;;;7.30;2.28;;;20.20;67.00;;;;;;4931363;28;95585;-54
2022/01/03 13:53:03;;;;;;;5.70;2.05;;;20.20;67.10;;;;;;4931414;28;95742;-57